Time;durP1;ratioP1;P1;durP2;ratioP2;P2;SDS_P1;SDS_P2;PMS_P1;PMS_P2;Temp;Humidity;BMP_temperature;BMP_pressure;BME280_temperature;BME280_humidity;BME280_pressure;Samples;Min_cycle;Max_cycle;Signal;HPM_P1;HPM_P2
2022/09/10 00:00:06;;;;;;;6.05;2.72;;;16.50;99.90;;;;;;4923255;29;20241;-90
2022/09/10 00:02:38;;;;;;;2.58;2.10;;;16.50;99.90;;;;;;4939299;28;20201;-88
2022/09/10 00:05:08;;;;;;;5.90;2.28;;;16.40;99.90;;;;;;4938191;28;20198;-88
2022/09/10 00:07:37;;;;;;;2.05;1.75;;;16.40;99.90;;;;;;4925105;29;20562;-89
2022/09/10 00:10:05;;;;;;;2.70;2.30;;;16.40;99.90;;;;;;4920321;29;20222;-88
2022/09/10 00:12:34;;;;;;;4.50;2.22;;;16.40;99.90;;;;;;4919998;29;20206;-89
2022/09/10 00:15:02;;;;;;;4.40;2.17;;;16.40;99.90;;;;;;4913361;29;20209;-88
2022/09/10 00:17:31;;;;;;;3.88;2.13;;;16.40;99.90;;;;;;4908998;29;20198;-89
2022/09/10 00:19:59;;;;;;;2.03;1.80;;;16.40;99.90;;;;;;4915921;29;20226;-88
2022/09/10 00:22:26;;;;;;;4.10;2.08;;;16.40;99.90;;;;;;4927530;29;20218;-88
2022/09/10 00:24:56;;;;;;;4.50;2.13;;;16.50;99.90;;;;;;4934867;29;20195;-89
2022/09/10 00:27:26;;;;;;;3.33;2.10;;;16.50;99.90;;;;;;4907529;29;20199;-88
2022/09/10 00:29:54;;;;;;;6.40;2.10;;;16.50;99.90;;;;;;4931944;29;20222;-89
2022/09/10 00:32:22;;;;;;;3.72;1.83;;;16.50;99.90;;;;;;4922516;29;20206;-88
2022/09/10 00:34:50;;;;;;;4.10;2.10;;;16.50;99.90;;;;;;4922994;29;20235;-88
2022/09/10 00:37:18;;;;;;;3.17;1.60;;;16.50;99.90;;;;;;4914517;29;20202;-89
2022/09/10 00:39:46;;;;;;;6.35;1.90;;;16.50;99.90;;;;;;4914744;29;20230;-88
2022/09/10 00:42:16;;;;;;;5.65;2.13;;;16.50;99.90;;;;;;4909789;29;20211;-88
2022/09/10 00:45:00;;;;;;;2.90;1.75;;;16.50;99.90;;;;;;4935253;29;20199;-88
2022/09/10 00:47:33;;;;;;;2.67;1.83;;;16.60;99.90;;;;;;4914996;29;20206;-88
2022/09/10 00:50:05;;;;;;;4.50;2.08;;;16.60;99.90;;;;;;4922741;29;20211;-89
2022/09/10 00:52:34;;;;;;;3.50;2.10;;;16.60;99.90;;;;;;4920263;29;20199;-89
2022/09/10 00:55:03;;;;;;;2.35;1.45;;;16.60;99.90;;;;;;4914734;29;20229;-89
2022/09/10 00:57:32;;;;;;;3.50;2.00;;;16.60;99.90;;;;;;4924164;29;20674;-88
2022/09/10 01:00:03;;;;;;;3.88;1.88;;;16.60;99.90;;;;;;4914792;29;20237;-88
2022/09/10 01:02:30;;;;;;;2.85;1.90;;;16.60;99.90;;;;;;4926449;29;20207;-88
2022/09/10 01:04:59;;;;;;;1.83;1.67;;;16.60;99.90;;;;;;4941432;29;20195;-88
2022/09/10 01:07:29;;;;;;;3.53;1.65;;;16.60;99.90;;;;;;4945490;29;20695;-89
2022/09/10 01:10:02;;;;;;;2.90;2.17;;;16.60;99.90;;;;;;4928230;29;20238;-88
2022/09/10 01:12:54;;;;;;;3.55;2.45;;;16.60;99.90;;;;;;4947157;28;20570;-88
2022/09/10 01:15:30;;;;;;;2.85;1.63;;;16.60;99.90;;;;;;4929063;29;20206;-88
2022/09/10 01:18:14;;;;;;;4.40;2.20;;;16.60;99.90;;;;;;4929164;29;20519;-88
2022/09/10 01:20:55;;;;;;;3.53;2.08;;;16.50;99.90;;;;;;4945858;28;20221;-88
2022/09/10 01:24:14;;;;;;;4.72;2.42;;;16.40;99.90;;;;;;4919497;29;20583;-88
2022/09/10 01:27:21;;;;;;;2.80;2.13;;;16.40;99.90;;;;;;4892041;29;20202;-89
2022/09/10 01:29:57;;;;;;;2.47;1.90;;;16.40;99.90;;;;;;4944296;28;20222;-88
2022/09/10 01:32:29;;;;;;;4.90;2.22;;;16.30;99.90;;;;;;4911948;29;20210;-88
2022/09/10 01:35:07;;;;;;;2.35;1.77;;;16.30;99.90;;;;;;4919839;29;20226;-88
2022/09/10 01:37:38;;;;;;;3.10;1.85;;;16.30;99.90;;;;;;4916303;29;20206;-88
2022/09/10 01:40:09;;;;;;;4.97;2.22;;;16.40;99.90;;;;;;4924881;29;20226;-89
2022/09/10 01:42:39;;;;;;;3.15;1.65;;;16.40;99.90;;;;;;4916329;29;20662;-88
2022/09/10 01:45:11;;;;;;;7.10;2.05;;;16.40;99.90;;;;;;4914654;29;20213;-89
2022/09/10 01:47:50;;;;;;;2.95;1.58;;;16.30;99.90;;;;;;4918636;29;20201;-89
2022/09/10 01:50:24;;;;;;;4.68;1.75;;;16.30;99.90;;;;;;4931017;29;20221;-88
2022/09/10 01:53:08;;;;;;;3.40;1.35;;;16.30;99.90;;;;;;4911315;29;20209;-88
2022/09/10 01:55:45;;;;;;;3.63;1.52;;;16.30;99.90;;;;;;4949307;28;20231;-89
2022/09/10 01:58:21;;;;;;;3.13;1.73;;;16.20;99.90;;;;;;4910933;29;20591;-89
2022/09/10 02:01:10;;;;;;;2.55;1.42;;;16.20;99.90;;;;;;4928097;29;20221;-88
2022/09/10 02:03:40;;;;;;;2.50;1.73;;;16.20;99.90;;;;;;4935835;29;20209;-88
2022/09/10 02:06:13;;;;;;;3.53;1.45;;;16.20;99.90;;;;;;4907049;29;20203;-89
2022/09/10 02:08:44;;;;;;;1.30;1.17;;;16.20;99.90;;;;;;4922007;29;20207;-89
2022/09/10 02:11:13;;;;;;;4.07;1.55;;;16.20;99.90;;;;;;4937177;29;20321;-89
2022/09/10 02:13:46;;;;;;;3.42;1.58;;;16.30;99.90;;;;;;4919643;29;20718;-88
2022/09/10 02:16:44;;;;;;;2.60;1.27;;;16.30;99.90;;;;;;4945817;28;20205;-89
2022/09/10 02:19:14;;;;;;;4.88;1.67;;;16.30;99.90;;;;;;4917642;29;20730;-89
2022/09/10 02:21:41;;;;;;;4.13;1.40;;;16.30;99.90;;;;;;4909877;29;20216;-89
2022/09/10 02:24:11;;;;;;;2.17;1.52;;;16.40;99.90;;;;;;4914398;29;20217;-88
2022/09/10 02:26:43;;;;;;;3.00;1.67;;;16.30;99.90;;;;;;4921254;29;20202;-89
2022/09/10 02:29:14;;;;;;;2.85;1.23;;;16.30;99.90;;;;;;4924533;29;20203;-88
2022/09/10 02:31:42;;;;;;;4.13;1.85;;;16.40;99.90;;;;;;4916780;29;20206;-89
2022/09/10 02:34:14;;;;;;;4.72;2.33;;;16.40;99.90;;;;;;4912584;29;20229;-88
2022/09/10 02:36:44;;;;;;;5.30;2.10;;;16.40;99.90;;;;;;4947024;28;20537;-88
2022/09/10 02:39:11;;;;;;;4.32;2.35;;;16.30;99.90;;;;;;4936584;29;20207;-89
2022/09/10 02:41:40;;;;;;;5.32;2.10;;;16.30;99.90;;;;;;4906992;29;20207;-88
2022/09/10 02:44:08;;;;;;;3.97;2.22;;;16.20;99.90;;;;;;4917977;29;20206;-89
2022/09/10 02:46:38;;;;;;;3.80;2.38;;;16.20;99.90;;;;;;4929834;29;20207;-88
2022/09/10 02:49:06;;;;;;;3.97;2.33;;;16.20;99.90;;;;;;4906741;29;20214;-89
2022/09/10 02:51:38;;;;;;;5.05;2.47;;;16.20;99.90;;;;;;4914525;29;20207;-89
2022/09/10 02:54:07;;;;;;;5.97;2.50;;;16.20;99.90;;;;;;4929582;29;20233;-89
2022/09/10 02:56:35;;;;;;;3.17;2.33;;;16.30;99.90;;;;;;4916789;29;20233;-89
2022/09/10 02:59:02;;;;;;;3.65;2.42;;;16.30;99.90;;;;;;4908087;29;20568;-88
2022/09/10 03:01:31;;;;;;;3.42;2.65;;;16.30;99.90;;;;;;4927953;29;20207;-88
2022/09/10 03:04:06;;;;;;;2.95;2.20;;;16.20;99.90;;;;;;4925654;29;20214;-89
2022/09/10 03:06:38;;;;;;;3.00;2.35;;;16.20;99.90;;;;;;4912951;29;20202;-88
2022/09/10 03:09:07;;;;;;;3.05;2.47;;;16.20;99.90;;;;;;4927291;29;20223;-88
2022/09/10 03:11:38;;;;;;;3.40;2.47;;;16.20;99.90;;;;;;4925312;29;20210;-88
2022/09/10 03:14:07;;;;;;;3.40;2.25;;;16.10;99.90;;;;;;4939606;29;20199;-88
2022/09/10 03:16:34;;;;;;;3.75;2.20;;;16.10;99.90;;;;;;4928452;29;20202;-88
2022/09/10 03:19:04;;;;;;;4.15;2.05;;;16.10;99.90;;;;;;4913045;29;20196;-88
2022/09/10 03:21:32;;;;;;;3.35;2.00;;;16.10;99.90;;;;;;4914004;29;20604;-89
2022/09/10 03:24:00;;;;;;;4.35;2.20;;;16.10;99.90;;;;;;4913916;29;20214;-88
2022/09/10 03:26:30;;;;;;;4.88;2.65;;;16.10;99.90;;;;;;4948052;28;20206;-88
2022/09/10 03:28:58;;;;;;;3.13;2.10;;;16.00;99.90;;;;;;4919118;29;20209;-88
2022/09/10 03:31:28;;;;;;;4.85;2.22;;;16.10;99.90;;;;;;4910122;29;20209;-88
2022/09/10 03:33:56;;;;;;;4.43;2.40;;;16.10;99.90;;;;;;4936643;29;20190;-88
2022/09/10 03:36:30;;;;;;;5.00;2.72;;;16.10;99.90;;;;;;4912931;29;20214;-89
2022/09/10 03:38:58;;;;;;;2.47;2.28;;;16.00;99.90;;;;;;4909682;29;20199;-88
2022/09/10 03:41:27;;;;;;;3.95;2.63;;;16.10;99.90;;;;;;4942979;29;20226;-89
2022/09/10 03:43:58;;;;;;;4.03;2.60;;;16.10;99.90;;;;;;4930903;29;20203;-88
2022/09/10 03:46:27;;;;;;;3.13;2.38;;;16.10;99.90;;;;;;4915534;29;20214;-89
2022/09/10 03:48:57;;;;;;;4.78;2.92;;;16.10;99.90;;;;;;4949033;28;20229;-88
2022/09/10 03:51:30;;;;;;;4.40;3.30;;;16.00;99.90;;;;;;4903803;29;20210;-88
2022/09/10 03:53:58;;;;;;;4.30;2.72;;;16.00;99.90;;;;;;4933931;29;20194;-88
2022/09/10 03:56:26;;;;;;;4.85;3.20;;;16.00;99.90;;;;;;4907651;29;20224;-84
2022/09/10 03:58:54;;;;;;;4.07;3.30;;;15.90;99.90;;;;;;4939837;28;20574;-84
2022/09/10 04:01:22;;;;;;;4.63;3.42;;;15.90;99.90;;;;;;4942902;28;20214;-84
2022/09/10 04:03:49;;;;;;;5.63;4.32;;;15.90;99.90;;;;;;4933672;29;20198;-84
2022/09/10 04:06:17;;;;;;;4.53;4.13;;;15.90;99.90;;;;;;4927712;29;20207;-84
2022/09/10 04:08:51;;;;;;;5.20;4.70;;;15.90;99.90;;;;;;4943683;29;20190;-84
2022/09/10 04:11:22;;;;;;;5.70;4.35;;;15.90;99.90;;;;;;4943174;28;20201;-84
2022/09/10 04:13:51;;;;;;;5.40;4.20;;;15.90;99.90;;;;;;4923248;29;20677;-84
2022/09/10 04:16:18;;;;;;;5.07;4.60;;;15.80;99.90;;;;;;4928578;29;20231;-84
2022/09/10 04:18:46;;;;;;;6.53;4.82;;;15.80;99.90;;;;;;4924062;29;20199;-83
2022/09/10 04:21:19;;;;;;;8.32;5.35;;;15.80;99.90;;;;;;4927178;29;20226;-84
2022/09/10 04:23:52;;;;;;;7.43;5.53;;;15.80;99.90;;;;;;4938584;29;20205;-83
2022/09/10 04:26:21;;;;;;;9.00;5.72;;;15.80;99.90;;;;;;4943854;28;20207;-83
2022/09/10 04:28:50;;;;;;;6.38;5.75;;;15.70;99.90;;;;;;4912583;29;20214;-84
2022/09/10 04:31:18;;;;;;;6.97;5.35;;;15.70;99.90;;;;;;4927131;29;20203;-84
2022/09/10 04:33:47;;;;;;;8.95;5.47;;;15.80;99.90;;;;;;4912376;29;20209;-84
2022/09/10 04:36:16;;;;;;;8.65;6.18;;;15.80;99.90;;;;;;4943052;28;20222;-84
2022/09/10 04:38:47;;;;;;;8.85;6.00;;;15.80;99.90;;;;;;4922246;29;20211;-84
2022/09/10 04:41:18;;;;;;;6.43;5.82;;;15.80;99.90;;;;;;4915544;29;20234;-84
2022/09/10 04:43:46;;;;;;;8.77;5.63;;;15.80;99.90;;;;;;4922678;29;20195;-84
2022/09/10 04:46:14;;;;;;;6.75;5.72;;;15.80;99.90;;;;;;4912023;29;20203;-84
2022/09/10 04:48:43;;;;;;;8.80;6.00;;;15.80;99.90;;;;;;4928379;29;20201;-83
2022/09/10 04:51:13;;;;;;;6.07;5.50;;;15.80;99.90;;;;;;4923272;29;20233;-84
2022/09/10 04:53:44;;;;;;;9.50;5.68;;;15.70;99.90;;;;;;4952448;28;20199;-83
2022/09/10 04:56:13;;;;;;;7.60;6.35;;;15.80;99.90;;;;;;4932110;29;20226;-83
2022/09/10 04:58:42;;;;;;;7.05;6.35;;;15.80;99.90;;;;;;4924303;29;20218;-83
2022/09/10 05:01:10;;;;;;;6.78;6.03;;;15.80;99.90;;;;;;4929945;29;20241;-83
2022/09/10 05:03:38;;;;;;;7.63;5.88;;;15.80;99.90;;;;;;4919637;29;20202;-84
2022/09/10 05:06:07;;;;;;;8.30;6.28;;;15.80;99.90;;;;;;4916320;29;20207;-84
2022/09/10 05:08:35;;;;;;;9.48;6.63;;;15.80;99.90;;;;;;4930467;29;20200;-83
2022/09/10 05:11:03;;;;;;;8.30;6.78;;;15.80;99.90;;;;;;4937877;29;20227;-82
2022/09/10 05:13:31;;;;;;;9.80;6.57;;;15.80;99.90;;;;;;4934013;29;20199;-82
2022/09/10 05:16:01;;;;;;;8.27;6.65;;;15.80;99.90;;;;;;4944484;29;20581;-83
2022/09/10 05:21:32;;;;;;;9.32;6.70;;;15.80;99.90;;;;;;4929142;29;20206;-84
2022/09/10 05:24:04;;;;;;;9.43;6.72;;;15.80;99.90;;;;;;4931892;29;20211;-83
2022/09/10 05:26:33;;;;;;;7.18;6.45;;;15.90;99.90;;;;;;4930866;29;20199;-84
2022/09/10 05:29:05;;;;;;;8.25;7.35;;;15.90;99.90;;;;;;4928955;29;20202;-83
2022/09/10 05:31:39;;;;;;;8.82;7.88;;;15.90;99.90;;;;;;4918424;29;20209;-83
2022/09/10 05:34:16;;;;;;;8.52;6.72;;;15.80;99.90;;;;;;4938322;29;20202;-83
2022/09/10 05:36:47;;;;;;;9.25;7.40;;;15.80;99.90;;;;;;4935604;29;20225;-81
2022/09/10 05:39:21;;;;;;;7.70;6.97;;;15.80;99.90;;;;;;4938192;28;20223;-82
2022/09/10 05:41:48;;;;;;;7.78;6.97;;;15.80;99.90;;;;;;4942429;28;20222;-82
2022/09/10 05:44:16;;;;;;;8.27;7.22;;;15.80;99.90;;;;;;4933316;29;20214;-82
2022/09/10 05:46:47;;;;;;;9.02;7.38;;;15.80;99.90;;;;;;4929267;29;20210;-82
2022/09/10 05:49:18;;;;;;;9.27;7.60;;;15.70;99.90;;;;;;4916740;29;20702;-83
2022/09/10 05:51:46;;;;;;;9.27;8.18;;;15.70;99.90;;;;;;4916164;29;20203;-83
2022/09/10 05:54:13;;;;;;;9.70;8.05;;;15.60;99.90;;;;;;4912993;29;20203;-82
2022/09/10 05:56:44;;;;;;;9.73;8.07;;;15.70;99.90;;;;;;4945091;28;20580;-82
2022/09/10 05:59:12;;;;;;;9.18;8.00;;;15.70;99.90;;;;;;4946665;28;20206;-81
2022/09/10 06:01:45;;;;;;;10.55;8.40;;;15.60;99.90;;;;;;4917360;29;20594;-81
2022/09/10 06:04:12;;;;;;;8.80;7.57;;;15.70;99.90;;;;;;4918234;29;20194;-81
2022/09/10 06:06:40;;;;;;;8.52;7.68;;;15.70;99.90;;;;;;4916770;29;20566;-81
2022/09/10 06:09:11;;;;;;;8.68;7.78;;;15.70;99.90;;;;;;4921079;29;20206;-81
2022/09/10 06:12:04;;;;;;;9.10;7.15;;;15.70;99.90;;;;;;4936791;29;20221;-81
2022/09/10 06:14:32;;;;;;;9.82;7.07;;;15.70;99.90;;;;;;4937944;29;20217;-82
2022/09/10 06:17:01;;;;;;;8.10;6.88;;;15.70;99.90;;;;;;4920773;29;20236;-81
2022/09/10 06:19:31;;;;;;;8.50;7.53;;;15.80;99.90;;;;;;4922938;29;20222;-82
2022/09/10 06:21:59;;;;;;;8.52;7.05;;;15.80;99.90;;;;;;4923347;29;20226;-82
2022/09/10 06:24:30;;;;;;;8.13;6.45;;;15.80;99.90;;;;;;4921822;29;20199;-81
2022/09/10 06:27:00;;;;;;;8.77;6.55;;;15.80;99.90;;;;;;4922954;29;20195;-83
2022/09/10 06:29:31;;;;;;;6.80;6.15;;;15.80;99.90;;;;;;4923626;29;20215;-82
2022/09/10 06:32:05;;;;;;;7.07;6.38;;;15.90;99.90;;;;;;4921393;29;20203;-81
2022/09/10 06:34:33;;;;;;;8.35;6.53;;;15.80;99.90;;;;;;4917263;29;20206;-82
2022/09/10 06:37:03;;;;;;;7.53;6.80;;;15.90;99.90;;;;;;4914764;29;20694;-81
2022/09/10 06:39:31;;;;;;;10.10;6.35;;;15.90;99.90;;;;;;4918672;29;20229;-82
2022/09/10 06:42:01;;;;;;;7.90;6.40;;;15.90;99.90;;;;;;4946334;28;20706;-81
2022/09/10 06:45:05;;;;;;;6.50;5.90;;;15.90;99.90;;;;;;4875364;29;20200;-82
2022/09/10 06:47:57;;;;;;;9.05;6.47;;;15.90;99.90;;;;;;4921035;29;20194;-81
2022/09/10 06:50:57;;;;;;;6.30;5.70;;;15.90;99.90;;;;;;4935702;28;20691;-81
2022/09/10 06:53:32;;;;;;;6.60;5.97;;;16.00;99.90;;;;;;4903089;29;20195;-81
2022/09/10 06:56:02;;;;;;;7.97;6.25;;;15.90;99.90;;;;;;4919046;29;20214;-80
2022/09/10 06:58:33;;;;;;;9.35;7.00;;;15.90;99.90;;;;;;4908795;29;20234;-82
2022/09/10 07:01:07;;;;;;;9.50;6.72;;;15.90;99.90;;;;;;4935724;29;20233;-83
2022/09/10 07:03:36;;;;;;;7.93;6.00;;;16.00;99.90;;;;;;4948162;28;20206;-83
2022/09/10 07:06:06;;;;;;;7.57;6.28;;;16.00;99.90;;;;;;4913742;29;20203;-83
2022/09/10 07:08:34;;;;;;;10.02;5.97;;;16.00;99.90;;;;;;4924341;29;20206;-82
2022/09/10 07:11:04;;;;;;;6.93;5.45;;;15.90;99.90;;;;;;4913938;29;20218;-83
2022/09/10 07:13:32;;;;;;;7.22;5.72;;;15.90;99.90;;;;;;4936903;29;20206;-81
2022/09/10 07:16:02;;;;;;;6.32;5.68;;;15.90;99.90;;;;;;4915841;29;20210;-82
2022/09/10 07:18:32;;;;;;;5.97;5.22;;;15.90;99.90;;;;;;4910868;29;20207;-83
2022/09/10 07:21:08;;;;;;;6.25;5.55;;;15.90;99.90;;;;;;4915289;29;20312;-84
2022/09/10 07:23:44;;;;;;;7.93;5.50;;;15.90;99.90;;;;;;4915114;29;20223;-81
2022/09/10 07:26:13;;;;;;;11.20;6.07;;;15.90;99.90;;;;;;4914122;29;20210;-81
2022/09/10 07:28:48;;;;;;;5.90;5.35;;;16.00;99.90;;;;;;4926094;29;20616;-82
2022/09/10 07:31:18;;;;;;;6.53;5.93;;;16.00;99.90;;;;;;4943252;28;20230;-81
2022/09/10 07:33:56;;;;;;;6.50;5.28;;;16.10;99.90;;;;;;4941800;28;20199;-80
2022/09/10 07:36:25;;;;;;;6.55;5.30;;;16.10;99.90;;;;;;4920567;29;20221;-79
2022/09/10 07:38:56;;;;;;;7.50;5.32;;;16.10;99.90;;;;;;4925588;29;20203;-82
2022/09/10 07:41:29;;;;;;;5.32;4.53;;;16.20;99.90;;;;;;4930058;29;21181;-82
2022/09/10 07:44:00;;;;;;;5.95;5.03;;;16.20;99.90;;;;;;4915367;29;20214;-81
2022/09/10 07:46:32;;;;;;;8.02;5.10;;;16.20;99.90;;;;;;4919132;29;20206;-81
2022/09/10 07:49:01;;;;;;;6.25;4.97;;;16.30;99.90;;;;;;4912915;29;20199;-80
2022/09/10 07:51:31;;;;;;;5.70;5.10;;;16.30;99.90;;;;;;4954767;28;20201;-80
2022/09/10 07:54:01;;;;;;;5.95;5.43;;;16.30;99.90;;;;;;4925738;29;20198;-79
2022/09/10 07:56:34;;;;;;;8.90;5.70;;;16.40;99.90;;;;;;4914458;29;20218;-80
2022/09/10 07:59:04;;;;;;;5.68;5.10;;;16.40;99.90;;;;;;4913338;29;20217;-81
2022/09/10 08:01:37;;;;;;;7.68;5.80;;;16.40;99.90;;;;;;4917805;29;20202;-79
2022/09/10 08:04:06;;;;;;;7.82;6.25;;;16.40;99.90;;;;;;4913138;29;20197;-79
2022/09/10 08:06:44;;;;;;;6.32;5.72;;;16.40;99.90;;;;;;4928891;29;20221;-80
2022/09/10 08:09:13;;;;;;;6.95;6.22;;;16.40;99.90;;;;;;4918441;29;21603;-81
2022/09/10 08:11:47;;;;;;;6.40;5.80;;;16.50;99.90;;;;;;4917122;29;20213;-81
2022/09/10 08:14:17;;;;;;;6.55;5.90;;;16.60;99.90;;;;;;4916597;29;20210;-81
2022/09/10 08:16:51;;;;;;;8.10;6.32;;;16.70;99.90;;;;;;4911638;29;20213;-81
2022/09/10 08:19:20;;;;;;;7.50;6.70;;;16.60;99.90;;;;;;4918579;29;20572;-80
2022/09/10 08:21:49;;;;;;;47.20;14.93;;;16.60;99.90;;;;;;4944972;28;20206;-81
2022/09/10 08:24:23;;;;;;;7.95;6.55;;;16.60;99.90;;;;;;4937700;29;20201;-82
2022/09/10 08:26:51;;;;;;;7.80;6.97;;;16.80;99.90;;;;;;4937979;29;20198;-84
2022/09/10 08:29:19;;;;;;;8.00;7.22;;;16.60;99.90;;;;;;4952870;28;20225;-84
2022/09/10 08:31:47;;;;;;;9.85;6.45;;;16.60;99.90;;;;;;4927449;29;20210;-84
2022/09/10 08:34:22;;;;;;;9.52;6.97;;;16.90;99.90;;;;;;4921860;29;20566;-84
2022/09/10 08:36:58;;;;;;;9.88;7.47;;;16.90;99.90;;;;;;4926570;29;20237;-84
2022/09/10 08:39:35;;;;;;;8.13;6.35;;;16.70;99.90;;;;;;4930596;29;20244;-83
2022/09/10 08:42:08;;;;;;;8.18;6.68;;;16.90;99.90;;;;;;4933344;29;20194;-81
2022/09/10 08:44:47;;;;;;;7.45;6.68;;;17.10;99.90;;;;;;4946237;28;20210;-79
2022/09/10 08:47:24;;;;;;;7.13;5.50;;;17.10;99.90;;;;;;4922742;29;20214;-80
2022/09/10 08:49:57;;;;;;;9.00;6.03;;;17.00;99.90;;;;;;4922553;29;20222;-80
2022/09/10 08:52:32;;;;;;;9.45;6.72;;;17.00;99.90;;;;;;4928478;29;20218;-79
2022/09/10 08:55:13;;;;;;;8.20;7.43;;;16.90;99.90;;;;;;4927314;29;20206;-79
2022/09/10 08:57:46;;;;;;;10.07;6.43;;;16.80;99.90;;;;;;4927306;29;20226;-81
2022/09/10 09:00:17;;;;;;;7.43;6.65;;;17.00;99.90;;;;;;4953117;28;20628;-80
2022/09/10 09:02:52;;;;;;;9.00;7.00;;;17.10;99.90;;;;;;4917715;29;20220;-80
2022/09/10 09:05:24;;;;;;;9.50;7.10;;;17.10;99.90;;;;;;4929929;29;20201;-79
2022/09/10 09:07:58;;;;;;;7.65;6.95;;;17.00;99.90;;;;;;4930755;29;20667;-79
2022/09/10 09:10:36;;;;;;;7.22;6.43;;;16.90;99.90;;;;;;4938017;29;20226;-79
2022/09/10 09:13:24;;;;;;;9.57;7.22;;;16.90;99.90;;;;;;4925867;29;20278;-80
2022/09/10 09:16:01;;;;;;;7.43;6.72;;;16.80;99.90;;;;;;4953380;29;20206;-80
2022/09/10 09:18:37;;;;;;;7.70;6.90;;;16.90;99.90;;;;;;4928294;29;20222;-80
2022/09/10 09:21:10;;;;;;;6.97;6.28;;;16.90;99.90;;;;;;4960245;29;20217;-80
2022/09/10 09:23:48;;;;;;;7.95;7.15;;;16.90;99.90;;;;;;4919964;29;20562;-80
2022/09/10 09:26:18;;;;;;;8.07;6.88;;;17.00;99.90;;;;;;4926789;29;20210;-80
2022/09/10 09:28:56;;;;;;;11.48;6.75;;;17.00;99.90;;;;;;4958253;29;20213;-80
2022/09/10 09:31:28;;;;;;;9.05;6.47;;;17.00;99.90;;;;;;4925250;29;20666;-80
2022/09/10 09:34:04;;;;;;;7.72;6.93;;;17.00;99.90;;;;;;4943566;29;20199;-80
2022/09/10 09:36:37;;;;;;;7.53;6.72;;;17.10;99.90;;;;;;4925964;29;20221;-80
2022/09/10 09:39:14;;;;;;;9.90;6.60;;;17.10;99.90;;;;;;4926016;29;20226;-80
2022/09/10 09:41:51;;;;;;;7.55;6.60;;;17.00;99.90;;;;;;4942030;29;20210;-80
2022/09/10 09:44:25;;;;;;;8.35;6.70;;;17.10;99.90;;;;;;4926305;29;20209;-80
2022/09/10 09:46:53;;;;;;;9.15;7.22;;;17.20;99.90;;;;;;4927974;29;20206;-80
2022/09/10 09:49:21;;;;;;;7.43;6.50;;;17.10;99.90;;;;;;4942105;29;20231;-80
2022/09/10 09:51:50;;;;;;;8.65;7.05;;;17.10;99.90;;;;;;4946499;29;20194;-80
2022/09/10 09:54:24;;;;;;;9.77;6.60;;;17.10;99.90;;;;;;4940869;29;20205;-80
2022/09/10 09:56:54;;;;;;;7.47;6.35;;;17.00;99.90;;;;;;4921921;29;20686;-83
2022/09/10 09:59:27;;;;;;;8.35;6.72;;;17.00;99.90;;;;;;4920681;29;20232;-83
2022/09/10 10:01:58;;;;;;;9.27;7.07;;;17.00;99.90;;;;;;4918137;29;20202;-83
2022/09/10 10:04:29;;;;;;;7.13;6.32;;;17.00;99.90;;;;;;4921132;29;20194;-83
2022/09/10 10:06:58;;;;;;;8.60;6.80;;;17.00;99.90;;;;;;4920767;29;20236;-83
2022/09/10 10:09:29;;;;;;;7.30;6.47;;;16.90;99.90;;;;;;4952114;29;20218;-83
2022/09/10 10:11:58;;;;;;;11.02;6.97;;;16.90;99.90;;;;;;4919392;29;20659;-83
2022/09/10 10:14:46;;;;;;;8.68;7.50;;;16.90;99.90;;;;;;4920893;29;20213;-83
2022/09/10 10:17:35;;;;;;;7.90;7.10;;;16.80;99.90;;;;;;4938718;29;20198;-83
2022/09/10 10:20:09;;;;;;;8.00;7.00;;;16.70;99.90;;;;;;4922745;29;20244;-83
2022/09/10 10:22:38;;;;;;;8.02;7.20;;;16.60;99.90;;;;;;4914292;29;20205;-83
2022/09/10 10:25:33;;;;;;;10.13;7.82;;;16.50;99.90;;;;;;4921296;29;20198;-83
2022/09/10 10:28:02;;;;;;;7.65;5.65;;;16.40;99.90;;;;;;4933257;29;20183;-83
2022/09/10 10:30:31;;;;;;;8.27;6.10;;;16.30;99.90;;;;;;4918378;29;20707;-83
2022/09/10 10:33:00;;;;;;;6.38;5.63;;;16.30;99.90;;;;;;4920247;29;20205;-82
2022/09/10 10:35:34;;;;;;;4.40;4.00;;;16.20;99.90;;;;;;4920274;29;20191;-82
2022/09/10 10:38:28;;;;;;;7.43;6.20;;;16.10;99.90;;;;;;4921519;29;20225;-83
2022/09/10 10:41:28;;;;;;;6.45;5.85;;;16.10;99.90;;;;;;4920658;29;20218;-83
2022/09/10 10:44:09;;;;;;;6.20;5.53;;;16.10;99.90;;;;;;4932273;29;20214;-83
2022/09/10 10:46:47;;;;;;;6.55;5.90;;;16.10;99.90;;;;;;4920087;29;20202;-83
2022/09/10 10:49:26;;;;;;;6.05;5.55;;;16.10;99.90;;;;;;4920190;29;20198;-83
2022/09/10 10:52:05;;;;;;;5.97;5.47;;;16.10;99.90;;;;;;4919621;29;20561;-83
2022/09/10 10:54:45;;;;;;;6.22;5.70;;;16.00;99.90;;;;;;4920261;29;20662;-83
2022/09/10 10:57:23;;;;;;;5.63;5.10;;;16.00;99.90;;;;;;4937931;29;20651;-83
2022/09/10 10:59:56;;;;;;;5.80;5.30;;;15.90;99.90;;;;;;4919784;29;20725;-83
2022/09/10 11:02:38;;;;;;;6.93;5.53;;;15.90;99.90;;;;;;4928192;29;20202;-83
2022/09/10 11:05:18;;;;;;;5.57;5.18;;;15.90;99.90;;;;;;4920496;29;20206;-83
2022/09/10 11:07:47;;;;;;;5.90;5.25;;;16.00;99.90;;;;;;4920237;29;20209;-83
2022/09/10 11:10:19;;;;;;;7.05;5.93;;;16.10;99.90;;;;;;4921248;29;20222;-83
2022/09/10 11:12:51;;;;;;;7.75;6.57;;;16.20;99.90;;;;;;4934560;29;20686;-83
2022/09/10 11:15:30;;;;;;;5.78;5.28;;;16.10;99.90;;;;;;4937500;29;20194;-82
2022/09/10 11:18:04;;;;;;;5.07;4.68;;;16.20;99.90;;;;;;4919970;29;20198;-82
2022/09/10 11:20:35;;;;;;;4.78;4.32;;;16.30;99.90;;;;;;4918217;29;20225;-83
2022/09/10 11:23:10;;;;;;;5.00;4.50;;;16.30;99.90;;;;;;4915210;29;20555;-83
2022/09/10 11:25:46;;;;;;;5.63;4.85;;;16.40;99.90;;;;;;4933108;29;20582;-83
2022/09/10 11:28:19;;;;;;;5.32;4.82;;;16.50;99.90;;;;;;4932798;29;20198;-83
2022/09/10 11:31:01;;;;;;;6.90;6.20;;;16.60;99.90;;;;;;4933305;29;20227;-83
2022/09/10 11:33:35;;;;;;;7.90;6.70;;;16.70;99.90;;;;;;4918851;29;20213;-83
2022/09/10 11:36:10;;;;;;;8.57;7.88;;;16.80;99.90;;;;;;4921021;29;20197;-83
2022/09/10 11:38:47;;;;;;;8.98;8.10;;;16.90;99.90;;;;;;4919396;29;20240;-83
2022/09/10 11:41:20;;;;;;;13.02;10.35;;;17.10;99.90;;;;;;4936548;29;20706;-83
2022/09/10 11:43:53;;;;;;;10.77;9.52;;;17.10;99.90;;;;;;4920850;29;20198;-83
2022/09/10 11:46:26;;;;;;;11.65;10.45;;;17.10;99.90;;;;;;4919289;29;20209;-83
2022/09/10 11:49:02;;;;;;;12.75;10.18;;;17.20;99.90;;;;;;4950375;29;20199;-83
2022/09/10 11:51:32;;;;;;;11.32;10.15;;;17.20;99.90;;;;;;4922270;29;20202;-83
2022/09/10 11:54:02;;;;;;;14.15;11.20;;;17.20;99.90;;;;;;4922607;29;20206;-83
2022/09/10 11:56:51;;;;;;;12.10;10.45;;;17.20;99.90;;;;;;4923869;29;20210;-84
2022/09/10 11:59:36;;;;;;;12.55;11.05;;;17.20;99.90;;;;;;4961533;28;20240;-83
2022/09/10 12:02:26;;;;;;;12.80;11.57;;;17.20;99.90;;;;;;4923060;29;20202;-83
2022/09/10 12:05:00;;;;;;;14.00;12.75;;;17.30;99.90;;;;;;4924987;29;20198;-83
2022/09/10 12:07:43;;;;;;;14.98;13.02;;;17.30;99.90;;;;;;4932910;29;20202;-83
2022/09/10 12:10:19;;;;;;;14.43;13.07;;;17.40;99.90;;;;;;4929305;29;20221;-83
2022/09/10 12:12:49;;;;;;;15.88;13.45;;;17.50;99.90;;;;;;4931703;29;20211;-83
2022/09/10 12:15:20;;;;;;;15.35;13.05;;;17.50;99.90;;;;;;4931815;29;20225;-83
2022/09/10 12:17:53;;;;;;;18.27;15.38;;;17.50;99.90;;;;;;4939005;29;20203;-83
2022/09/10 12:20:28;;;;;;;16.63;14.95;;;17.60;99.90;;;;;;4943638;29;20305;-83
2022/09/10 12:22:56;;;;;;;16.83;15.15;;;17.50;99.90;;;;;;4935374;29;20204;-83
2022/09/10 12:25:27;;;;;;;16.70;15.10;;;17.40;99.90;;;;;;4944242;29;20199;-83
2022/09/10 12:27:58;;;;;;;16.35;14.65;;;17.40;99.90;;;;;;4959082;28;20226;-83
2022/09/10 12:31:01;;;;;;;15.65;14.25;;;17.30;99.90;;;;;;4927736;29;20217;-83
2022/09/10 12:34:14;;;;;;;15.45;13.88;;;17.30;99.90;;;;;;4918772;29;20202;-83
2022/09/10 12:37:23;;;;;;;13.77;12.50;;;17.20;99.90;;;;;;4940803;29;20198;-83
2022/09/10 12:40:24;;;;;;;15.50;14.00;;;17.20;99.90;;;;;;4945034;29;20218;-83
2022/09/10 12:42:52;;;;;;;17.15;15.35;;;17.20;99.90;;;;;;4921925;29;20207;-83
2022/09/10 12:45:52;;;;;;;18.50;16.70;;;17.20;99.90;;;;;;4928544;29;20591;-83
2022/09/10 12:48:20;;;;;;;16.77;15.07;;;17.20;99.90;;;;;;4920370;29;20686;-83
2022/09/10 12:50:56;;;;;;;18.48;16.42;;;17.10;99.90;;;;;;4931583;29;20214;-83
2022/09/10 12:53:46;;;;;;;18.10;16.25;;;17.10;99.90;;;;;;4928635;29;20202;-83
2022/09/10 12:56:36;;;;;;;19.60;17.52;;;17.00;99.90;;;;;;4937618;29;20566;-83
2022/09/10 12:59:45;;;;;;;19.05;16.70;;;17.00;99.90;;;;;;4921160;29;20226;-83
2022/09/10 13:02:21;;;;;;;18.80;16.80;;;17.00;99.90;;;;;;4937029;28;20206;-83
2022/09/10 13:04:56;;;;;;;17.95;15.82;;;17.00;99.90;;;;;;4941181;29;20200;-83
2022/09/10 13:07:30;;;;;;;19.50;17.08;;;17.00;99.90;;;;;;4954738;28;20205;-83
2022/09/10 13:10:01;;;;;;;19.38;16.88;;;17.00;99.90;;;;;;4923304;29;20213;-83
2022/09/10 13:12:31;;;;;;;18.17;16.27;;;17.00;99.90;;;;;;4939178;29;20205;-83
2022/09/10 13:15:01;;;;;;;20.48;16.23;;;17.00;99.90;;;;;;4931318;29;20206;-83
2022/09/10 13:17:37;;;;;;;19.42;16.45;;;17.00;99.90;;;;;;4946260;29;20677;-82